createdAt,value
2022-10-28T00:00:48.064Z,4.06
2022-10-28T00:04:50.838Z,4.06
2022-10-28T00:06:51.979Z,4.06
2022-10-28T00:10:54.447Z,4.06
2022-10-28T00:12:56.296Z,4.06
2022-10-28T00:14:57.553Z,4.06
2022-10-28T00:16:58.610Z,4.06
2022-10-28T00:21:00.844Z,4.06
2022-10-28T00:23:02.573Z,4.06
2022-10-28T00:25:04.296Z,4.06
2022-10-28T00:27:06.228Z,4.06
2022-10-28T00:29:07.596Z,4.06
2022-10-28T00:31:08.992Z,4.06
2022-10-28T00:33:10.117Z,4.06
2022-10-28T00:37:12.598Z,4.06
2022-10-28T00:39:13.715Z,4.06
2022-10-28T00:41:14.971Z,4.06
2022-10-28T00:43:16.053Z,4.06
2022-10-28T00:47:19.212Z,4.05
2022-10-28T00:49:21.122Z,4.06
2022-10-28T00:51:22.741Z,4.05
2022-10-28T00:53:24.618Z,4.06
2022-10-28T00:55:26.517Z,4.05
2022-10-28T00:57:28.292Z,4.06
2022-10-28T00:59:29.268Z,4.05
2022-10-28T01:03:31.763Z,4.05
2022-10-28T01:05:33.590Z,4.05
2022-10-28T01:07:35.381Z,4.05
2022-10-28T01:09:36.677Z,4.06
2022-10-28T01:11:38.444Z,4.05
2022-10-28T01:13:40.198Z,4.05
2022-10-28T01:15:41.925Z,4.05
2022-10-28T01:19:43.862Z,4.05
2022-10-28T01:21:45.150Z,4.05
2022-10-28T01:23:46.557Z,4.05
2022-10-28T01:25:48.483Z,4.05
2022-10-28T01:29:51.958Z,4.05
2022-10-28T01:31:53.571Z,4.05
2022-10-28T01:33:54.651Z,4.05
2022-10-28T01:35:55.689Z,4.05
2022-10-28T01:37:57.027Z,4.05
2022-10-28T01:39:58.437Z,4.05
2022-10-28T01:41:59.972Z,4.05
2022-10-28T01:46:03.448Z,4.04
2022-10-28T01:48:05.343Z,4.04
2022-10-28T01:50:06.543Z,4.04
2022-10-28T01:52:08.391Z,4.05
2022-10-28T01:54:10.249Z,4.05
2022-10-28T01:56:11.460Z,4.05
2022-10-28T01:58:12.996Z,4.04
2022-10-28T02:00:14.083Z,4.04
2022-10-28T02:02:15.556Z,4.04
2022-10-28T02:04:17.307Z,4.04
2022-10-28T02:06:18.282Z,4.04
2022-10-28T02:08:20.089Z,4.04
2022-10-28T02:12:23.481Z,4.04
2022-10-28T02:14:25.379Z,4.04
2022-10-28T02:18:28.691Z,4.04
2022-10-28T02:20:29.720Z,4.04
2022-10-28T02:22:30.671Z,4.04
2022-10-28T02:24:31.715Z,4.04
2022-10-28T02:28:33.638Z,4.04
2022-10-28T02:30:35.505Z,4.04
2022-10-28T02:32:37.367Z,4.04
2022-10-28T02:34:38.765Z,4.04
2022-10-28T02:36:40.530Z,4.04
2022-10-28T02:38:42.007Z,4.04
2022-10-28T02:40:43.136Z,4.04
2022-10-28T02:44:45.571Z,4.04
2022-10-28T02:46:47.433Z,4.04
2022-10-28T02:48:49.281Z,4.04
2022-10-28T02:50:50.511Z,4.04
2022-10-28T02:54:53.885Z,4.04
2022-10-28T02:56:55.488Z,4.04
2022-10-28T02:58:56.545Z,4.03
2022-10-28T03:00:58.274Z,4.04
2022-10-28T03:02:59.743Z,4.04
2022-10-28T03:05:00.970Z,4.04
2022-10-28T03:07:02.272Z,4.04
2022-10-28T03:11:05.536Z,4.03
2022-10-28T03:17:09.955Z,4.03
2022-10-28T03:19:11.185Z,4.03
2022-10-28T03:21:13.034Z,4.04
2022-10-28T03:23:14.294Z,4.03
2022-10-28T03:25:15.286Z,4.03
2022-10-28T03:29:18.042Z,4.03
2022-10-28T03:31:18.965Z,4.03
2022-10-28T03:33:20.589Z,4.03
2022-10-28T03:35:21.700Z,4.03
2022-10-28T03:37:23.627Z,4.03
2022-10-28T03:39:25.031Z,4.03
2022-10-28T03:43:28.159Z,4.03
2022-10-28T03:49:32.158Z,4.03
2022-10-28T03:51:33.755Z,4.03
2022-10-28T03:53:35.124Z,4.03
2022-10-28T03:55:36.191Z,4.03
2022-10-28T03:59:38.285Z,4.03
2022-10-28T04:01:39.756Z,4.02
2022-10-28T04:03:40.670Z,4.03
2022-10-28T04:05:42.017Z,4.02
2022-10-28T04:09:45.131Z,4.03
2022-10-28T04:11:46.798Z,4.02
2022-10-28T04:13:48.601Z,4.02
2022-10-28T04:15:49.529Z,4.02
2022-10-28T04:17:50.495Z,4.02
2022-10-28T04:19:51.824Z,4.02
2022-10-28T04:21:53.695Z,4.02
2022-10-28T04:25:57.204Z,4.02
2022-10-28T04:27:58.633Z,4.02
2022-10-28T04:32:01.895Z,4.02
2022-10-28T04:34:03.185Z,4.02
2022-10-28T04:36:04.632Z,4.02
2022-10-28T04:38:06.375Z,4.02
2022-10-28T04:42:08.808Z,4.02
2022-10-28T04:42:52.916Z,4.02
2022-10-28T04:44:54.212Z,4.02
2022-10-28T04:46:55.844Z,4.02
2022-10-28T04:48:56.957Z,4.02
2022-10-28T04:52:59.881Z,4.02
2022-10-28T04:55:01.054Z,4.02
2022-10-28T04:57:02.206Z,4.02
2022-10-28T04:59:03.866Z,4.02
2022-10-28T05:03:06.110Z,4.02
2022-10-28T05:05:08.044Z,4.02
2022-10-28T05:07:09.533Z,4.02
2022-10-28T05:09:11.062Z,4.02
2022-10-28T05:11:12.374Z,4.02
2022-10-28T05:13:13.650Z,4.01
2022-10-28T05:15:15.156Z,4.01
2022-10-28T05:19:18.297Z,4.02
2022-10-28T05:21:19.310Z,4.02
2022-10-28T05:23:20.901Z,4.02
2022-10-28T05:25:22.516Z,4.01
2022-10-28T05:27:24.095Z,4.02
2022-10-28T05:29:28.650Z,4.02
2022-10-28T05:31:27.691Z,4.01
2022-10-28T05:33:28.769Z,4.02
2022-10-28T05:35:30.460Z,4.01
2022-10-28T05:37:31.703Z,4.01
2022-10-28T05:39:33.249Z,4.01
2022-10-28T05:41:38.571Z,4.01
2022-10-28T05:45:38.213Z,4.01
2022-10-28T05:47:40.009Z,4.01
2022-10-28T05:51:42.029Z,4.01
2022-10-28T05:53:43.476Z,4.01
2022-10-28T05:55:45.221Z,4.01
2022-10-28T05:57:46.362Z,4.01
2022-10-28T06:01:48.839Z,4.01
2022-10-28T06:03:49.782Z,4
2022-10-28T06:05:50.752Z,4.01
2022-10-28T06:07:51.911Z,4.01
2022-10-28T06:09:52.900Z,4.01
2022-10-28T06:11:52.727Z,4.01
2022-10-28T06:13:54.554Z,4.01
2022-10-28T06:17:57.146Z,4
2022-10-28T06:19:58.709Z,4.01
2022-10-28T06:22:00.009Z,4.01
2022-10-28T06:24:01.319Z,4
2022-10-28T06:28:05.788Z,4.01
2022-10-28T06:30:05.556Z,4
2022-10-28T06:32:06.699Z,4
2022-10-28T06:34:07.628Z,4
2022-10-28T06:36:08.707Z,4
2022-10-28T06:38:10.067Z,4
2022-10-28T06:40:11.659Z,4
2022-10-28T06:44:14.817Z,4
2022-10-28T06:46:16.537Z,4
2022-10-28T06:48:19.425Z,4
2022-10-28T06:50:20.557Z,4
2022-10-28T06:52:22.042Z,4
2022-10-28T06:54:23.008Z,4
2022-10-28T06:56:24.591Z,4
2022-10-28T07:00:27.327Z,4
2022-10-28T07:02:29.129Z,4
2022-10-28T07:04:30.338Z,4
2022-10-28T07:06:31.251Z,4
2022-10-28T07:08:33.144Z,4
2022-10-28T07:10:34.850Z,4
2022-10-28T07:12:36.511Z,4
2022-10-28T07:16:40.087Z,4
2022-10-28T07:18:41.326Z,4
2022-10-28T07:20:43.156Z,4
2022-10-28T07:22:44.277Z,4
2022-10-28T07:26:47.200Z,4
2022-10-28T07:28:48.601Z,4
2022-10-28T07:30:50.465Z,4
2022-10-28T07:32:52.112Z,4
2022-10-28T07:34:52.885Z,4
2022-10-28T07:36:54.573Z,4
2022-10-28T07:38:55.776Z,4.01
2022-10-28T07:42:58.601Z,4.02
2022-10-28T07:45:00.400Z,4.02
2022-10-28T07:47:01.813Z,4.02
2022-10-28T07:49:03.531Z,4.02
2022-10-28T07:51:04.697Z,4.03
2022-10-28T07:53:06.221Z,4.03
2022-10-28T07:55:07.269Z,4.03
2022-10-28T07:59:09.442Z,4.06
2022-10-28T08:01:10.621Z,4.06
2022-10-28T08:03:11.678Z,4.07
2022-10-28T08:05:13.267Z,4.07
2022-10-28T08:09:16.600Z,4.08
2022-10-28T08:11:17.909Z,4.06
2022-10-28T08:13:19.599Z,4.06
2022-10-28T08:15:20.750Z,4.06
2022-10-28T08:17:22.536Z,4.07
2022-10-28T08:19:23.996Z,4.06
2022-10-28T08:21:25.163Z,4.08
2022-10-28T08:25:27.709Z,4.09
2022-10-28T08:27:28.885Z,4.1
2022-10-28T08:31:32.171Z,4.1
2022-10-28T08:33:33.933Z,4.11
2022-10-28T08:35:35.344Z,4.11
2022-10-28T08:37:36.966Z,4.11
2022-10-28T08:39:37.864Z,4.12
2022-10-28T08:41:38.988Z,4.12
2022-10-28T08:43:56.565Z,4.12
2022-10-28T08:45:42.360Z,4.13
2022-10-28T08:47:44.315Z,4.13
2022-10-28T08:51:47.183Z,4.11
2022-10-28T08:53:48.102Z,4.11
2022-10-28T08:55:49.743Z,4.11
2022-10-28T08:57:50.589Z,4.11
2022-10-28T08:59:52.334Z,4.11
2022-10-28T09:01:56.416Z,4.11
2022-10-28T09:03:55.182Z,4.11
2022-10-28T09:07:58.090Z,4.11
2022-10-28T09:09:59.248Z,4.11
2022-10-28T09:12:00.526Z,4.1
2022-10-28T09:14:01.454Z,4.11
2022-10-28T09:16:03.102Z,4.11
2022-10-28T09:18:04.887Z,4.11
2022-10-28T09:20:06.566Z,4.11
2022-10-28T09:24:09.553Z,4.14
2022-10-28T09:26:11.186Z,4.12
2022-10-28T09:28:12.289Z,4.11
2022-10-28T09:30:13.846Z,4.12
2022-10-28T09:32:14.957Z,4.12
2022-10-28T09:34:16.518Z,4.12
2022-10-28T09:36:17.370Z,4.13
2022-10-28T09:40:19.520Z,4.15
2022-10-28T09:42:20.300Z,4.15
2022-10-28T09:46:22.805Z,4.16
2022-10-28T09:48:23.868Z,4.16
2022-10-28T09:50:25.347Z,4.16
2022-10-28T09:52:26.905Z,4.16
2022-10-28T09:56:29.038Z,4.17
2022-10-28T09:58:30.418Z,4.17
2022-10-28T10:00:31.691Z,4.17
2022-10-28T10:04:34.132Z,4.17
2022-10-28T10:08:37.106Z,4.18
2022-10-28T10:10:38.514Z,4.18
2022-10-28T10:12:39.783Z,4.18
2022-10-28T10:14:40.987Z,4.19
2022-10-28T10:16:42.388Z,4.19
2022-10-28T10:18:43.566Z,4.19
2022-10-28T10:22:46.759Z,4.19
2022-10-28T10:24:48.140Z,4.19
2022-10-28T10:26:49.766Z,4.19
2022-10-28T10:28:51.230Z,4.19
2022-10-28T10:30:52.143Z,4.19
2022-10-28T10:32:53.669Z,4.19
2022-10-28T10:34:54.503Z,4.2
2022-10-28T10:36:55.822Z,4.19
2022-10-28T10:38:56.884Z,4.19
2022-10-28T10:40:58.080Z,4.19
2022-10-28T10:43:09.933Z,4.19
2022-10-28T10:45:00.904Z,4.19
2022-10-28T10:49:03.572Z,4.19
2022-10-28T10:51:04.434Z,4.19
2022-10-28T10:53:05.354Z,4.19
2022-10-28T10:55:07.114Z,4.2
2022-10-28T10:57:08.508Z,4.2
2022-10-28T10:59:09.668Z,4.2
2022-10-28T11:01:11.123Z,4.2
2022-10-28T11:03:12.360Z,4.2
2022-10-28T11:05:13.714Z,4.2
2022-10-28T11:07:14.888Z,4.2
2022-10-28T11:09:16.028Z,4.2
2022-10-28T11:11:16.875Z,4.2
2022-10-28T11:13:17.693Z,4.2
2022-10-28T11:15:19.409Z,4.2
2022-10-28T11:17:20.808Z,4.2
2022-10-28T11:23:24.407Z,4.19
2022-10-28T11:25:25.895Z,4.19
2022-10-28T11:27:26.881Z,4.19
2022-10-28T11:28:10.551Z,4.19
2022-10-28T11:30:11.809Z,4.19
2022-10-28T11:32:13.176Z,4.19
2022-10-28T11:34:14.241Z,4.19
2022-10-28T11:36:15.142Z,4.18
2022-10-28T11:38:15.991Z,4.18
2022-10-28T11:42:19.032Z,4.18
2022-10-28T11:44:20.447Z,4.19
2022-10-28T11:46:21.560Z,4.19
2022-10-28T12:18:42.775Z,4.17
2022-10-28T12:20:43.326Z,4.18
2022-10-28T12:24:45.335Z,4.17
2022-10-28T12:26:46.656Z,4.17
2022-10-28T12:28:48.219Z,4.17
2022-10-28T12:30:49.554Z,4.18
2022-10-28T12:32:51.338Z,4.18
2022-10-28T12:34:52.135Z,4.18
2022-10-28T12:36:53.154Z,4.17
2022-10-28T12:40:55.897Z,4.17
2022-10-28T12:47:00.146Z,4.17
2022-10-28T12:49:01.027Z,4.17
2022-10-28T12:51:02.419Z,4.17
2022-10-28T12:53:04.175Z,4.17
2022-10-28T12:57:06.791Z,4.17
2022-10-28T12:59:07.957Z,4.17
2022-10-28T13:01:09.641Z,4.17
2022-10-28T13:03:11.156Z,4.17
2022-10-28T13:07:13.785Z,4.17
2022-10-28T13:09:14.766Z,4.17
2022-10-28T13:13:17.175Z,4.17
2022-10-28T13:15:18.280Z,4.17
2022-10-28T13:17:19.396Z,4.17
2022-10-28T13:19:21.003Z,4.17
2022-10-28T13:23:23.794Z,4.17
2022-10-28T13:25:24.709Z,4.17
2022-10-28T13:27:26.070Z,4.16
2022-10-28T13:29:27.664Z,4.17
2022-10-28T13:31:28.559Z,4.17
2022-10-28T13:33:29.671Z,4.16
2022-10-28T13:35:30.610Z,4.17
2022-10-28T13:39:33.837Z,4.17
2022-10-28T13:41:34.608Z,4.17
2022-10-28T13:43:35.698Z,4.16
2022-10-28T13:45:37.336Z,4.16
2022-10-28T13:49:39.844Z,4.16
2022-10-28T13:51:41.098Z,4.16
2022-10-28T13:53:41.877Z,4.16
2022-10-28T13:55:43.137Z,4.16
2022-10-28T13:57:43.909Z,4.17
2022-10-28T13:59:45.219Z,4.16
2022-10-28T14:01:52.562Z,4.16
2022-10-28T14:05:49.031Z,4.16
2022-10-28T14:07:50.199Z,4.16
2022-10-28T14:09:51.276Z,4.16
2022-10-28T14:11:52.128Z,4.16
2022-10-28T14:13:53.346Z,4.16
2022-10-28T14:15:54.091Z,4.16
2022-10-28T14:17:58.150Z,4.16
2022-10-28T14:22:01.912Z,4.16
2022-10-28T14:23:59.218Z,4.16
2022-10-28T14:26:00.046Z,4.16
2022-10-28T14:28:01.543Z,4.16
2022-10-28T14:30:03.048Z,4.16
2022-10-28T14:32:04.408Z,4.16
2022-10-28T14:34:05.584Z,4.16
2022-10-28T14:38:08.061Z,4.15
2022-10-28T14:40:08.972Z,4.16
2022-10-28T14:42:10.082Z,4.16
2022-10-28T14:44:11.308Z,4.16
2022-10-28T14:46:12.952Z,4.16
2022-10-28T14:48:14.159Z,4.15
2022-10-28T14:50:15.532Z,4.15
2022-10-28T14:54:18.223Z,4.15
2022-10-28T14:56:19.327Z,4.15
2022-10-28T14:58:20.895Z,4.15
2022-10-28T15:00:22.399Z,4.15
2022-10-28T15:04:25.306Z,4.15
2022-10-28T15:06:27.021Z,4.15
2022-10-28T15:08:27.881Z,4.15
2022-10-28T15:10:29.298Z,4.15
2022-10-28T15:12:30.404Z,4.15
2022-10-28T15:14:31.242Z,4.15
2022-10-28T15:16:32.940Z,4.15
2022-10-28T15:20:36.184Z,4.15
2022-10-28T15:22:37.635Z,4.15
2022-10-28T15:24:39.456Z,4.14
2022-10-28T15:26:40.479Z,4.14
2022-10-28T15:30:46.260Z,4.15
2022-10-28T15:32:43.801Z,4.14
2022-10-28T15:34:45.478Z,4.14
2022-10-28T15:36:46.833Z,4.14
2022-10-28T15:38:48.154Z,4.14
2022-10-28T15:40:49.774Z,4.14
2022-10-28T15:42:50.772Z,4.15
2022-10-28T15:46:53.299Z,4.14
2022-10-28T15:48:54.811Z,4.14
2022-10-28T15:50:56.216Z,4.14
2022-10-28T15:52:57.629Z,4.14
2022-10-28T15:54:58.361Z,4.14
2022-10-28T15:56:59.653Z,4.14
2022-10-28T15:59:00.513Z,4.14
2022-10-28T16:03:03.828Z,4.14
2022-10-28T16:05:04.918Z,4.14
2022-10-28T16:07:06.187Z,4.14
2022-10-28T16:09:07.605Z,4.14
2022-10-28T16:11:09.145Z,4.14
2022-10-28T16:13:11.470Z,4.14
2022-10-28T16:15:12.229Z,4.14
2022-10-28T16:19:14.951Z,4.14
2022-10-28T16:21:16.605Z,4.14
2022-10-28T16:23:17.779Z,4.14
2022-10-28T16:25:19.224Z,4.14
2022-10-28T16:29:22.224Z,4.14
2022-10-28T16:31:23.488Z,4.14
2022-10-28T16:33:24.643Z,4.14
2022-10-28T16:35:26.336Z,4.14
2022-10-28T16:37:28.015Z,4.13
2022-10-28T16:39:29.255Z,4.14
2022-10-28T16:41:30.305Z,4.14
2022-10-28T16:45:33.417Z,4.14
2022-10-28T16:47:34.983Z,4.13
2022-10-28T16:49:36.542Z,4.14
2022-10-28T16:51:37.790Z,4.13
2022-10-28T16:53:39.568Z,4.13
2022-10-28T16:55:40.960Z,4.13
2022-10-28T16:57:41.937Z,4.13
2022-10-28T17:01:44.722Z,4.13
2022-10-28T17:03:46.033Z,4.13
2022-10-28T17:05:47.504Z,4.13
2022-10-28T17:07:48.688Z,4.13
2022-10-28T17:09:49.905Z,4.13
2022-10-28T17:11:51.310Z,4.13
2022-10-28T17:13:52.147Z,4.13
2022-10-28T17:17:55.030Z,4.13
2022-10-28T17:19:56.616Z,4.13
2022-10-28T17:21:57.856Z,4.13
2022-10-28T17:23:59.587Z,4.13
2022-10-28T17:28:02.178Z,4.12
2022-10-28T17:30:03.585Z,4.12
2022-10-28T17:32:04.556Z,4.13
2022-10-28T17:34:06.321Z,4.12
2022-10-28T17:36:07.993Z,4.12
2022-10-28T17:38:09.657Z,4.12
2022-10-28T17:40:10.777Z,4.13
2022-10-28T17:44:13.103Z,4.12
2022-10-28T17:46:14.423Z,4.12
2022-10-28T17:48:15.968Z,4.12
2022-10-28T17:50:17.072Z,4.12
2022-10-28T17:54:19.771Z,4.12
2022-10-28T17:56:21.125Z,4.12
2022-10-28T17:58:22.656Z,4.12
2022-10-28T18:00:24.509Z,4.12
2022-10-28T18:02:25.568Z,4.12
2022-10-28T18:04:27.196Z,4.12
2022-10-28T18:06:28.254Z,4.12
2022-10-28T18:10:31.188Z,4.12
2022-10-28T18:12:32.268Z,4.12
2022-10-28T18:15:17.548Z,4.12
2022-10-28T18:17:19.073Z,4.12
2022-10-28T18:21:21.135Z,4.12
2022-10-28T18:23:22.437Z,4.12
2022-10-28T18:25:23.651Z,4.11
2022-10-28T18:27:24.945Z,4.12
2022-10-28T18:29:26.386Z,4.12
2022-10-28T18:31:27.596Z,4.12
2022-10-28T18:33:29.146Z,4.11
2022-10-28T18:37:30.969Z,4.12
2022-10-28T18:39:32.622Z,4.12
2022-10-28T18:41:33.581Z,4.11
2022-10-28T18:43:34.550Z,4.12
2022-10-28T18:47:36.656Z,4.12
2022-10-28T18:49:37.736Z,4.11
2022-10-28T18:51:38.698Z,4.11
2022-10-28T18:53:40.166Z,4.12
2022-10-28T18:55:41.399Z,4.11
2022-10-28T18:59:58.483Z,4.11
2022-10-28T19:03:47.163Z,4.11
2022-10-28T19:05:48.673Z,4.11
2022-10-28T19:09:51.569Z,4.11
2022-10-28T19:11:53.223Z,4.11
2022-10-28T19:13:54.687Z,4.11
2022-10-28T19:15:56.331Z,4.11
2022-10-28T19:19:59.260Z,4.11
2022-10-28T19:22:00.337Z,4.11
2022-10-28T19:24:01.942Z,4.11
2022-10-28T19:26:03.392Z,4.11
2022-10-28T19:30:07.819Z,4.11
2022-10-28T19:32:08.241Z,4.1
2022-10-28T19:34:09.521Z,4.11
2022-10-28T19:36:10.872Z,4.1
2022-10-28T19:38:12.748Z,4.1
2022-10-28T19:40:13.658Z,4.11
2022-10-28T19:42:14.666Z,4.1
2022-10-28T19:46:16.696Z,4.1
2022-10-28T19:48:17.668Z,4.11
2022-10-28T19:50:18.983Z,4.1
2022-10-28T19:52:20.121Z,4.1
2022-10-28T19:54:21.783Z,4.1
2022-10-28T19:56:23.341Z,4.1
2022-10-28T19:58:24.796Z,4.1
2022-10-28T20:02:27.191Z,4.1
2022-10-28T20:04:27.965Z,4.1
2022-10-28T20:06:29.834Z,4.1
2022-10-28T20:08:31.286Z,4.1
2022-10-28T20:10:32.441Z,4.1
2022-10-28T20:12:34.216Z,4.1
2022-10-28T20:14:35.751Z,4.1
2022-10-28T20:18:38.082Z,4.1
2022-10-28T20:20:39.807Z,4.1
2022-10-28T20:22:53.810Z,4.1
2022-10-28T20:24:41.582Z,4.1
2022-10-28T20:28:44.882Z,4.1
2022-10-28T20:30:45.782Z,4.1
2022-10-28T20:34:48.082Z,4.1
2022-10-28T20:36:49.017Z,4.1
2022-10-28T20:38:50.780Z,4.1
2022-10-28T20:40:51.841Z,4.1
2022-10-28T20:44:55.033Z,4.09
2022-10-28T20:46:56.100Z,4.1
2022-10-28T20:48:57.230Z,4.1
2022-10-28T20:50:58.982Z,4.09
2022-10-28T20:53:00.775Z,4.09
2022-10-28T20:55:01.826Z,4.09
2022-10-28T20:57:03.319Z,4.09
2022-10-28T21:01:05.548Z,4.09
2022-10-28T21:03:06.656Z,4.09
2022-10-28T21:05:07.880Z,4.09
2022-10-28T21:07:08.957Z,4.09
2022-10-28T21:11:11.450Z,4.09
2022-10-28T21:13:13.231Z,4.09
2022-10-28T21:17:15.951Z,4.09
2022-10-28T21:19:17.036Z,4.09
2022-10-28T21:21:18.506Z,4.09
2022-10-28T21:23:19.778Z,4.09
2022-10-28T21:25:21.467Z,4.09
2022-10-28T21:27:23.067Z,4.09
2022-10-28T21:29:24.392Z,4.08
2022-10-28T21:33:27.770Z,4.09
2022-10-28T21:35:28.881Z,4.08
2022-10-28T21:37:30.287Z,4.08
2022-10-28T21:39:31.803Z,4.09
2022-10-28T21:43:35.001Z,4.08
2022-10-28T21:45:36.248Z,4.08
2022-10-28T21:47:37.654Z,4.08
2022-10-28T21:49:39.557Z,4.08
2022-10-28T21:51:40.449Z,4.08
2022-10-28T21:53:41.911Z,4.08
2022-10-28T21:55:46.638Z,4.08
2022-10-28T21:59:45.665Z,4.08
2022-10-28T22:01:47.177Z,4.08
2022-10-28T22:03:48.132Z,4.08
2022-10-28T22:05:49.536Z,4.08
2022-10-28T22:07:50.757Z,4.08
2022-10-28T22:09:52.546Z,4.08
2022-10-28T22:11:53.892Z,4.08
2022-10-28T22:15:57.141Z,4.08
2022-10-28T22:17:58.685Z,4.08
2022-10-28T22:19:59.520Z,4.08
2022-10-28T22:22:01.012Z,4.08
2022-10-28T22:26:03.829Z,4.08
2022-10-28T22:28:04.852Z,4.08
2022-10-28T22:32:07.668Z,4.08
2022-10-28T22:34:09.426Z,4.08
2022-10-28T22:36:11.133Z,4.08
2022-10-28T22:38:12.875Z,4.08
2022-10-28T22:42:15.894Z,4.08
2022-10-28T22:44:17.652Z,4.08
2022-10-28T22:46:18.884Z,4.08
2022-10-28T22:48:19.888Z,4.07
2022-10-28T22:50:21.376Z,4.08
2022-10-28T22:52:23.027Z,4.08
2022-10-28T22:54:24.778Z,4.07
2022-10-28T22:58:27.209Z,4.07
2022-10-28T23:00:28.942Z,4.07
2022-10-28T23:02:30.755Z,4.07
2022-10-28T23:04:32.199Z,4.08
2022-10-28T23:06:33.569Z,4.07
2022-10-28T23:08:34.818Z,4.07
2022-10-28T23:10:35.785Z,4.07
2022-10-28T23:14:38.747Z,4.07
2022-10-28T23:16:40.220Z,4.07
2022-10-28T23:18:42.004Z,4.07
2022-10-28T23:20:43.284Z,4.07
2022-10-28T23:24:46.837Z,4.07
2022-10-28T23:26:47.940Z,4.07
2022-10-28T23:30:50.999Z,4.07
2022-10-28T23:32:52.859Z,4.07
2022-10-28T23:34:54.679Z,4.07
2022-10-28T23:36:56.215Z,4.07
2022-10-28T23:40:58.897Z,4.06
2022-10-28T23:42:59.889Z,4.06
2022-10-28T23:45:01.266Z,4.07
2022-10-28T23:47:02.553Z,4.07
2022-10-28T23:49:03.660Z,4.06
2022-10-28T23:53:06.320Z,4.06
2022-10-28T23:57:08.594Z,4.06
2022-10-28T23:59:09.593Z,4.06
